Airfield :
LOGIN :

Register | Disclaimer

   EN    FR    IT 

 










Legend :    VFR   Marginal VFR   IFR   Intensive IFR   Very Intensive IFR
Visi :
Ceiling :
>= 8 km
>= 3000ft
5 to 8 km
1000 to 3000 ft
1500m to 5 km
500 to 1000 ft
800 to 1500m
200 to 500 ft
< 800m
< 200 ft
Symbols :   Thunderstorms  Fog  Heavy snow  Heavy precipitations  Wind > 20 kt
SIGMETs :     Misc.  Thunderstorms  Icing  Turbulence  Mountain Waves  Volcanic Ashes







- Airport Elevation : 7 ft
- IATA code : VCE


LIPZ - Marco Polo Int. Venezia

CURRENT METAR :
  • 151550Z 30002KT 7000 FEW070 08/07 Q0996 NOSIG

EXPIRED METARs :
  • 151520Z VRB02KT 7000 FEW065 08/07 Q0996 NOSIG
  • 151450Z 15003KT 100V160 8000 FEW065 08/07 Q0997 NOSIG
  • 151420Z 21003KT 8000 FEW060 SCT070 08/07 Q0997 NOSIG
  • 151350Z 19002KT 8000 FEW060 09/07 Q0997 NOSIG
  • 151320Z VRB02KT 8000 SCT063 10/07 Q0997 NOSIG
  • 151250Z VRB02KT 9000 FEW062 09/07 Q0997 NOSIG

TAF TAF LIPZ
Valid from the 15 at 12:00 until the 16 at 18:00 UTC


151100Z 1512/1618 VRB05KT 9999 SCT060
TEMPO 1515/1523 1500 BCFG
BECMG 1523/1601 01010KT
No reported NOTAMs for that airfield.
1 SIGMET reported for the Milano FIR (LIMM) :
 
Severe turbulence
LIMM SIGMET 8 VALID 151440/151840 LIIP
LIMM MILANO FIR SEV TURB OBS WI N4424 E00903 - N4501 E01033 - N4424 E01231 - N4356 E01125 - N4354 E01017 - N4424 E00903 FL150/250 STNR NC=



MET'MAP, your aeronautical weather chart ! - Copyright ORBIFLY December 2007 - Disclaimer

ORBIFLY MET'MAP TEAM :

Programming & Development : Alexandra Zaïnal
Concept & Development : Baudouin d'Aumeries
Co-Development & Prog : Marc-Olivier Méhu
Technical & hardware support : Manuel Goepfert

Contact : metmap@orbifly.com




SOURCES & CREDITS :

   NOAA